Latest Weather Observations for Blackall

IDQ60801

Issued at 4:02 pm EST Wednesday 2 September 2015 (issued every 30 minutes, with the page automatically refreshed every 10 minutes)

About weather observations | Map of weather stations | Latest weather observations for QLD | Other Formats
Station Details ID: 036034 Name: BLACKALL AIRPORT Lat: -24.43 Lon: 145.43 Height: 281.3 m
Data from the previous 72 hours. | See also: Recent months at Blackall
Date/Time
EST
Temp
°C
App
Temp
°C
Dew
Point
Rel
Hum
%
Delta-T
°C
Wind Press
QNH
hPa
Press
MSL
hPa
Rain
since 9 am
mm
Dir
 
Spd
km/h
Gust
km/h
Spd
kts
Gust
kts
02/04:00pm 31.2 27.0 5.6 20 13.7 NW 17 28 9 15 1010.0 1009.0 0.0
02/03:30pm 31.3 26.7 5.7 20 13.8 NW 19 30 10 16 1010.2 1009.2 0.0
02/03:00pm 30.7 26.7 6.6 22 13.1 NW 17 28 9 15 1010.6 1009.5 0.0
02/02:30pm 30.5 26.2 7.7 24 12.6 NNW 20 32 11 17 1010.7 1009.6 0.0
02/02:00pm 30.4 25.4 8.2 25 12.4 NNW 24 39 13 21 1011.0 1009.9 0.0
02/01:30pm 30.4 24.9 9.3 27 12.0 NNW 28 48 15 26 1011.4 1010.3 0.0
02/01:01pm 30.6 24.0 7.7 24 12.7 NNW 32 52 17 28 1011.8 1010.7 0.0
02/01:00pm 30.6 24.4 7.7 24 12.7 NNW 30 43 16 23 1011.8 1010.7 0.0
02/12:40pm 31.0 24.6 8.7 25 12.6 N 32 54 17 29 1012.1 1011.0 0.0
02/12:30pm 30.7 24.7 10.1 28 11.8 N 32 46 17 25 1012.5 1011.5 0.0
02/12:00pm 30.0 24.0 10.0 29 11.4 N 32 44 17 24 1013.1 1012.1 0.0
02/11:49am 30.1 24.1 10.1 29 11.5 N 32 50 17 27 1013.4 1012.4 0.0
02/11:30am 29.5 24.8 13.3 37 9.7 N 30 37 16 20 1013.8 1012.8 0.0
02/11:00am 28.1 23.0 12.0 36 9.4 N 30 43 16 23 1014.4 1013.3 0.0
02/10:30am 27.2 22.9 13.2 42 8.3 N 28 37 15 20 1015.1 1014.0 0.0
02/10:00am 25.0 20.4 13.5 48 6.8 N 30 41 16 22 1015.0 1013.9 0.0
02/09:30am 24.5 21.9 14.9 55 5.8 NNE 22 32 12 17 1015.5 1014.5 0.0
02/09:00am 22.5 19.1 13.6 57 5.2 NNE 24 35 13 19 1015.7 1014.7 0.0
02/08:30am 20.7 17.6 12.1 58 4.9 NNE 20 30 11 16 1015.6 1014.6 0.0
02/08:00am 19.2 15.6 9.9 55 5.0 NNE 19 28 10 15 1015.5 1014.5 0.0
02/07:30am 18.5 14.7 9.0 54 5.0 NNE 19 24 10 13 1015.2 1014.1 0.0
02/07:00am 16.4 13.1 6.2 51 5.0 NE 13 17 7 9 1015.2 1014.1 0.0
02/06:30am 14.9 11.7 5.1 52 4.7 ENE 11 13 6 7 1015.3 1014.3 0.0
02/06:00am 14.7 11.4 4.7 51 4.7 NE 11 13 6 7 1015.1 1014.0 0.0
02/05:30am 14.2 10.8 4.2 51 4.7 ENE 11 13 6 7 1014.7 1013.6 0.0
02/05:00am 13.8 10.7 3.6 50 4.7 ENE 9 11 5 6 1014.7 1013.6 0.0
02/04:30am 14.0 11.2 2.9 47 5.0 ENE 7 9 4 5 1014.6 1013.5 0.0
02/04:00am 15.2 11.6 3.0 44 5.6 ENE 11 15 6 8 1014.6 1013.5 0.0
02/03:30am 15.7 11.3 2.8 42 5.9 ENE 15 19 8 10 1014.4 1013.3 0.0
02/03:00am 14.6 10.7 3.4 47 5.1 ENE 13 15 7 8 1015.2 1014.1 0.0
02/02:30am 13.6 10.5 3.4 50 4.7 E 9 11 5 6 1015.3 1014.3 0.0
02/02:00am 13.4 10.0 2.0 46 5.0 ESE 9 9 5 5 1015.5 1014.5 0.0
02/01:30am 13.4 10.1 2.3 47 4.9 ESE 9 9 5 5 1015.7 1014.7 0.0
02/01:00am 13.5 10.6 2.4 47 4.9 ESE 7 7 4 4 1015.7 1014.7 0.0
02/12:30am 14.2 11.3 2.8 46 5.2 E 7 9 4 5 1015.4 1014.4 0.0
02/12:00am 14.0 11.4 4.0 51 4.6 ESE 7 9 4 5 1015.5 1014.5 0.0
 
Date/Time
EST
Temp
°C
App
Temp
°C
Dew
Point
Rel
Hum
%
Delta-T
°C
Wind Press
QNH
hPa
Press
MSL
hPa
Rain
since 9 am
mm
Dir
 
Spd
km/h
Gust
km/h
Spd
kts
Gust
kts
01/11:30pm 13.8 11.2 4.4 53 4.4 E 7 9 4 5 1015.4 1014.4 0.0
01/11:00pm 13.7 12.3 3.8 51 4.6 CALM 0 0 0 0 1015.4 1014.4 0.0
01/10:30pm 14.6 12.7 4.9 52 4.6 ENE 4 7 2 4 1015.3 1014.3 0.0
01/10:00pm 15.8 13.1 3.9 45 5.6 E 7 9 4 5 1015.2 1014.1 0.0
01/09:30pm 15.9 13.2 3.7 44 5.7 ESE 7 9 4 5 1015.1 1014.0 0.0
01/09:00pm 15.5 12.4 3.6 45 5.5 ESE 9 9 5 5 1015.1 1014.0 0.0
01/08:30pm 16.3 14.8 3.0 41 6.1 CALM 0 0 0 0 1014.8 1013.7 0.0
01/08:00pm 17.3 15.8 3.2 39 6.6 CALM 0 0 0 0 1014.6 1013.5 0.0
01/07:30pm 18.6 16.9 2.0 33 7.7 CALM 0 0 0 0 1014.2 1013.1 0.0
01/07:00pm 19.3 17.7 2.2 32 8.0 CALM 0 0 0 0 1013.8 1012.8 0.0
01/06:30pm 22.0 20.0 -0.1 23 10.1 CALM 0 0 0 0 1013.7 1012.7 0.0
01/06:00pm 24.9 21.5 -1.8 17 12.0 W 6 9 3 5 1013.5 1012.5 0.0
01/05:30pm 26.6 22.6 -2.1 15 13.0 W 9 15 5 8 1013.4 1012.4 0.0
01/05:00pm 26.7 22.6 -3.0 14 13.3 NW 9 26 5 14 1013.2 1012.2 0.0
01/04:30pm 26.7 21.8 -3.0 14 13.3 WNW 13 22 7 12 1013.1 1012.1 0.0
01/04:00pm 26.7 22.6 -3.0 14 13.3 NNW 9 19 5 10 1013.2 1012.2 0.0
01/03:30pm 26.7 22.6 -3.0 14 13.3 NW 9 19 5 10 1013.2 1012.2 0.0
01/03:00pm 26.7 23.0 -3.0 14 13.3 NNW 7 13 4 7 1013.5 1012.5 0.0
01/02:30pm 26.5 22.4 -3.1 14 13.2 NW 9 15 5 8 1014.0 1013.0 0.0
01/02:00pm 26.2 22.1 -3.4 14 13.1 N 9 17 5 9 1014.8 1013.7 0.0
01/01:30pm 25.7 21.1 -3.8 14 12.9 N 11 20 6 11 1015.2 1014.1 0.0
01/01:00pm 25.3 21.2 -3.2 15 12.6 N 9 20 5 11 1015.7 1014.7 0.0
01/12:30pm 24.9 20.9 -2.6 16 12.2 NNE 9 20 5 11 1016.3 1015.3 0.0
01/12:00pm 24.2 19.4 -2.4 17 11.8 NNE 13 20 7 11 1016.9 1015.9 0.0
01/11:30am 23.4 18.9 -3.0 17 11.5 NNE 11 19 6 10 1017.6 1016.6 0.0
01/11:00am 23.1 18.0 -1.8 19 11.0 NE 15 24 8 13 1018.1 1017.0 0.0
01/10:30am 22.3 17.4 -0.4 22 10.3 NNE 15 20 8 11 1018.5 1017.5 0.0
01/10:00am 21.2 16.0 0.4 25 9.5 ENE 17 24 9 13 1018.7 1017.7 0.0
01/09:30am 19.5 14.5 1.5 30 8.3 ENE 17 20 9 11 1019.0 1018.5 0.0
01/09:00am 17.5 13.1 0.6 32 7.5 ENE 13 19 7 10 1019.1 1018.6 0.0
01/08:30am 15.5 10.3 0.1 35 6.7 E 17 22 9 12 1019.0 1018.5 0.0
01/08:00am 12.7 9.1 0.8 44 5.1 E 9 11 5 6 1018.9 1018.4 0.0
01/07:30am 10.2 7.1 1.6 55 3.7 SE 7 9 4 5 1018.5 1018.0 0.0
01/07:00am 7.3 4.3 1.8 68 2.3 SSE 7 9 4 5 1018.2 1017.7 0.0
01/06:30am 6.7 3.6 1.4 69 2.2 ESE 7 9 4 5 1017.6 1017.1 0.0
01/06:00am 6.7 3.7 1.8 71 2.0 ESE 7 7 4 4 1017.4 1016.9 0.0
01/05:30am 7.0 5.1 0.5 63 2.6 CALM 0 0 0 0 1017.1 1016.6 0.0
01/05:00am 8.2 4.6 0.9 60 3.0 SE 9 11 5 6 1017.0 1016.5 0.0
01/04:30am 7.9 4.9 2.0 66 2.5 ESE 7 9 4 5 1017.0 1016.5 0.0
01/04:00am 9.0 5.8 0.7 56 3.4 ESE 7 9 4 5 1017.2 1016.7 0.0
01/03:30am 9.2 5.6 0.6 55 3.5 ESE 9 11 5 6 1017.3 1016.8 0.0
01/03:00am 9.1 5.9 1.0 57 3.4 SE 7 9 4 5 1017.2 1016.7 0.0
01/02:30am 9.3 5.8 1.2 57 3.4 SE 9 9 5 5 1017.4 1016.9 0.0
01/02:00am 10.3 7.1 0.9 52 3.9 SE 7 9 4 5 1017.7 1017.3 0.0
01/01:30am 11.1 7.5 0.8 49 4.3 SE 9 11 5 6 1017.9 1017.4 0.0
01/01:00am 12.2 8.6 0.3 44 5.0 SSE 9 11 5 6 1018.1 1017.6 0.0
01/12:30am 13.2 8.8 0.3 41 5.5 SE 13 17 7 9 1018.1 1017.6 0.0
01/12:00am 12.7 8.9 1.7 47 4.8 SE 11 13 6 7 1018.2 1017.7 0.0
 
Date/Time
EST
Temp
°C
App
Temp
°C
Dew
Point
Rel
Hum
%
Delta-T
°C
Wind Press
QNH
hPa
Press
MSL
hPa
Rain
since 9 am
mm
Dir
 
Spd
km/h
Gust
km/h
Spd
kts
Gust
kts
31/11:30pm 12.6 8.9 2.5 50 4.5 SSE 11 13 6 7 1018.3 1017.8 0.0
31/11:00pm 11.2 8.1 3.7 60 3.4 SSE 9 9 5 5 1018.3 1017.8 0.0
31/10:30pm 11.3 8.4 4.7 64 3.0 SSE 9 11 5 6 1018.3 1017.8 0.0
31/10:00pm 11.5 8.4 3.5 58 3.6 S 9 11 5 6 1018.3 1017.8 0.0
31/09:30pm 12.8 11.6 4.8 58 3.7 CALM 0 0 0 0 1018.0 1017.5 0.0
31/09:00pm 12.5 10.0 4.7 59 3.6 SSE 7 7 4 4 1017.9 1017.4 0.0
31/08:30pm 13.2 10.5 3.8 53 4.3 S 7 9 4 5 1017.7 1017.3 0.0
31/08:00pm 14.4 12.1 2.9 46 5.2 S 4 7 2 4 1017.6 1017.1 0.0
31/07:30pm 15.6 13.0 3.4 44 5.7 S 6 7 3 4 1017.4 1016.9 0.0
31/07:00pm 16.8 13.6 0.9 34 7.1 S 7 7 4 4 1016.8 1016.3 0.0
31/06:30pm 19.3 15.8 -1.7 24 9.0 S 7 11 4 6 1016.4 1015.9 0.0
31/06:00pm 20.9 17.0 -1.6 22 9.8 S 9 11 5 6 1016.1 1015.6 0.0
31/05:30pm 21.9 17.8 -2.7 19 10.6 SW 9 15 5 8 1016.3 1015.8 0.0
31/05:00pm 22.6 17.8 -2.9 18 11.0 SW 13 20 7 11 1016.2 1015.7 0.0
31/04:30pm 22.9 18.9 -2.6 18 11.1 S 9 15 5 8 1015.9 1015.4 0.0
31/04:00pm 22.7 18.0 -2.1 19 10.9 SW 13 20 7 11 1015.8 1015.3 0.0
31/03:30pm 22.2 17.1 -1.8 20 10.6 S 15 24 8 13 1015.9 1015.4 0.0
31/03:00pm 22.4 17.0 -1.0 21 10.5 SSW 17 26 9 14 1016.3 1015.8 0.0
31/02:30pm 22.3 17.6 -1.7 20 10.6 W 13 28 7 15 1017.2 1016.7 0.0
31/02:00pm 22.3 17.7 -1.1 21 10.4 SSW 13 26 7 14 1017.7 1017.3 0.0
31/01:30pm 22.3 18.3 0.2 23 10.1 WSW 11 24 6 13 1018.3 1017.8 0.0
31/01:00pm 21.3 17.1 -0.6 23 9.8 SSW 11 19 6 10 1018.5 1018.0 0.0
31/12:30pm 20.7 16.9 -0.6 24 9.5 SE 9 20 5 11 1018.7 1018.2 0.0
31/12:00pm 20.2 16.4 -0.4 25 9.2 SSE 9 19 5 10 1018.9 1018.4 0.0
31/11:30am 20.2 17.0 -0.4 25 9.2 W 6 24 3 13 1019.4 1018.9 0.0
31/11:00am 20.1 16.6 1.5 29 8.6 SSE 9 15 5 8 1020.0 1019.5 0.0
31/10:30am 18.9 14.7 1.4 31 8.0 SE 13 19 7 10 1020.3 1019.8 0.0
31/10:00am 18.3 14.2 2.2 34 7.4 ESE 13 22 7 12 1020.4 1019.9 0.0
31/09:30am 17.0 13.5 3.3 40 6.4 ESE 11 17 6 9 1020.3 1019.8 0.0
31/09:00am 15.9 12.1 3.7 44 5.7 ESE 13 17 7 9 1020.1 1019.6 0.0
31/08:30am 13.5 9.7 3.8 52 4.5 ESE 13 17 7 9 1020.1 1019.6 0.0
31/08:00am 11.7 8.7 4.2 60 3.4 SE 9 13 5 7 1020.0 1019.5 0.0
31/07:30am 9.5 7.1 4.5 71 2.3 SSE 6 7 3 4 1019.7 1019.2 0.0
31/07:00am 6.9 4.4 4.0 82 1.3 SE 6 7 3 4 1019.4 1018.9 0.0
31/06:30am 6.2 4.8 3.5 83 1.2 CALM 0 0 0 0 1019.1 1018.6 0.0
31/06:00am 6.7 5.2 3.1 78 1.5 CALM 0 0 0 0 1018.7 1018.2 0.0
31/05:30am 7.7 6.3 3.4 74 1.9 CALM 0 0 0 0 1018.6 1018.1 0.0
31/05:00am 9.4 6.7 2.7 63 2.9 SE 6 9 3 5 1018.3 1017.8 0.0
31/04:30am 10.0 6.4 2.8 61 3.1 SSE 11 13 6 7 1017.6 1017.1 0.0
31/04:00am 10.0 6.0 3.1 62 3.0 S 13 15 7 8 1017.6 1017.1 0.0
31/03:30am 9.5 5.9 2.8 63 2.9 S 11 11 6 6 1018.3 1017.8 0.0
31/03:00am 9.9 6.7 3.0 62 3.0 SSE 9 11 5 6 1018.5 1018.0 0.0
31/02:30am 10.6 7.3 2.7 58 3.5 SSE 9 11 5 6 1018.6 1018.1 0.0
31/02:00am 11.2 7.9 2.5 55 3.8 SE 9 13 5 7 1018.9 1018.4 0.0
31/01:30am 12.2 8.5 2.1 50 4.4 SSE 11 15 6 8 1018.9 1018.4 0.0
31/01:00am 13.0 8.9 2.0 47 4.8 SSE 13 17 7 9 1019.1 1018.6 0.0
31/12:30am 12.6 9.0 2.7 51 4.4 SSE 11 15 6 8 1019.3 1018.8 0.0
31/12:00am 12.6 9.4 3.0 52 4.3 SSE 9 11 5 6 1019.4 1018.9 0.0
 
Date/Time
EST
Temp
°C
App
Temp
°C
Dew
Point
Rel
Hum
%
Delta-T
°C
Wind Press
QNH
hPa
Press
MSL
hPa
Rain
since 9 am
mm
Dir
 
Spd
km/h
Gust
km/h
Spd
kts
Gust
kts
30/11:30pm 13.4 10.1 2.6 48 4.8 S 9 9 5 5 1019.4 1018.9 0.0
30/11:00pm 13.6 10.4 2.8 48 4.8 SSE 9 11 5 6 1019.6 1019.1 0.0
30/10:30pm 14.6 11.3 2.5 44 5.5 SSE 9 13 5 7 1019.6 1019.1 0.0
30/10:00pm 15.9 12.1 2.0 39 6.3 S 11 15 6 8 1019.8 1019.3 0.0
30/09:30pm 15.9 12.3 2.7 41 6.0 S 11 15 6 8 1019.7 1019.2 0.0
30/09:00pm 16.3 12.7 2.7 40 6.2 S 11 15 6 8 1019.4 1018.9 0.0
30/08:30pm 16.5 13.0 3.6 42 6.0 S 11 13 6 7 1019.3 1018.8 0.0
30/08:00pm 15.6 12.6 4.0 46 5.4 S 9 11 5 6 1019.0 1018.5 0.0
30/07:30pm 16.3 13.7 5.9 50 5.1 S 9 9 5 5 1018.6 1018.1 0.0
30/07:00pm 18.1 15.2 2.8 36 7.1 SSE 7 9 4 5 1018.2 1017.7 0.0
30/06:30pm 19.4 16.4 2.3 32 8.0 SSE 7 9 4 5 1017.9 1017.4 0.0
30/06:00pm 20.9 16.9 0.7 26 9.2 S 11 15 6 8 1017.6 1017.1 0.0
30/05:30pm 21.9 17.1 0.4 24 9.9 SSW 15 26 8 14 1017.4 1016.9 0.0
30/05:00pm 22.5 17.7 0.4 23 10.2 SSW 15 24 8 13 1017.3 1016.8 0.0
30/04:30pm 23.1 18.5 1.4 24 10.2 SSW 15 26 8 14 1017.1 1016.6 0.0

Other Formats:

Comma delimited format used in spreadsheet applications
http://www.bom.gov.au/fwo/IDQ60801/IDQ60801.95351.axf

JavaScript Object Notation format (JSON) in row-major order
http://www.bom.gov.au/fwo/IDQ60801/IDQ60801.95351.json